createdAt,value
2023-01-23T00:03:52.015Z,7.15
2023-01-23T00:09:00.812Z,9.02
2023-01-23T00:14:07.716Z,7.30
2023-01-23T00:19:14.408Z,8.45
2023-01-23T00:24:22.481Z,8.50
2023-01-23T00:29:29.407Z,8.43
2023-01-23T00:34:36.412Z,8.35
2023-01-23T00:39:46.351Z,8.32
2023-01-23T00:44:53.050Z,7.13
2023-01-23T00:50:00.967Z,8.00
2023-01-23T00:55:12.013Z,8.07
2023-01-23T01:00:20.860Z,7.53
2023-01-23T01:05:28.161Z,7.53
2023-01-23T01:10:38.327Z,7.72
2023-01-23T01:15:45.019Z,7.87
2023-01-23T01:20:52.081Z,9.43
2023-01-23T01:26:03.743Z,8.40
2023-01-23T01:31:13.452Z,7.35
2023-01-23T01:36:24.324Z,8.00
2023-01-23T01:41:34.589Z,8.02
2023-01-23T01:46:41.070Z,7.25
2023-01-23T01:51:53.122Z,7.03
2023-01-23T01:57:20.565Z,7.63
2023-01-23T02:02:31.389Z,8.03
2023-01-23T02:07:43.362Z,8.07
2023-01-23T02:12:54.224Z,8.80
2023-01-23T02:18:00.816Z,8.23
2023-01-23T02:23:37.057Z,7.93
2023-01-23T02:28:48.055Z,7.57
2023-01-23T02:34:01.005Z,7.82
2023-01-23T02:39:11.031Z,8.55
2023-01-23T02:44:26.838Z,7.53
2023-01-23T02:49:37.472Z,7.15
2023-01-23T02:54:45.277Z,7.93
2023-01-23T03:00:11.577Z,7.28
2023-01-23T03:05:19.330Z,7.70
2023-01-23T03:10:25.806Z,8.68
2023-01-23T03:15:33.654Z,8.48
2023-01-23T03:20:42.959Z,8.65
2023-01-23T03:25:58.792Z,7.55
2023-01-23T03:31:10.384Z,9.40
2023-01-23T03:36:16.671Z,9.45
2023-01-23T03:41:28.744Z,8.55
2023-01-23T03:46:41.898Z,8.52
2023-01-23T03:51:48.246Z,7.80
2023-01-23T03:56:56.288Z,8.07
2023-01-23T04:02:24.929Z,9.27
2023-01-23T04:07:31.912Z,8.15
2023-01-23T04:12:39.354Z,7.15
2023-01-23T04:17:48.656Z,9.23
2023-01-23T04:22:55.365Z,8.32
2023-01-23T04:28:02.682Z,7.72
2023-01-23T04:33:10.891Z,8.65
2023-01-23T04:38:18.497Z,9.15
2023-01-23T04:43:26.162Z,9.75
2023-01-23T04:48:35.431Z,8.35
2023-01-23T04:53:41.923Z,7.97
2023-01-23T04:58:50.278Z,9.10
2023-01-23T05:04:00.497Z,8.73
2023-01-23T05:09:07.661Z,9.27
2023-01-23T05:14:28.424Z,8.95
2023-01-23T05:19:36.281Z,8.65
2023-01-23T05:24:48.833Z,8.73
2023-01-23T05:29:56.105Z,8.45
2023-01-23T05:35:08.204Z,8.43
2023-01-23T05:40:18.830Z,8.13
2023-01-23T05:45:57.046Z,8.25
2023-01-23T05:51:14.371Z,8.75
2023-01-23T05:56:21.477Z,9.67
2023-01-23T06:01:55.202Z,8.52
2023-01-23T06:07:23.305Z,9.43
2023-01-23T06:12:35.467Z,9.18
2023-01-23T06:17:42.436Z,9.63
2023-01-23T06:22:50.959Z,10.50
2023-01-23T06:27:58.083Z,9.10
2023-01-23T06:33:07.845Z,9.75
2023-01-23T06:38:21.281Z,9.65
2023-01-23T06:43:30.529Z,10.07
2023-01-23T06:48:36.997Z,9.32
2023-01-23T06:53:45.220Z,10.10
2023-01-23T06:58:52.238Z,11.32
2023-01-23T07:04:11.578Z,10.90
2023-01-23T07:09:21.466Z,11.52
2023-01-23T07:14:41.207Z,10.77
2023-01-23T07:19:53.133Z,11.45
2023-01-23T07:25:01.255Z,11.07
2023-01-23T07:30:10.322Z,10.80
2023-01-23T07:40:25.369Z,11.30
2023-01-23T07:45:31.773Z,11.32
2023-01-23T07:50:38.414Z,11.38
2023-01-23T07:55:46.165Z,12.65
2023-01-23T08:00:52.696Z,11.93
2023-01-23T08:06:00.135Z,13.35
2023-01-23T08:11:10.583Z,10.82
2023-01-23T08:16:17.358Z,10.90
2023-01-23T08:21:24.435Z,10.98
2023-01-23T08:26:33.737Z,11.55
2023-01-23T08:31:41.159Z,9.30
2023-01-23T08:36:47.679Z,12.65
2023-01-23T08:41:55.519Z,12.10
2023-01-23T08:47:03.770Z,14.32
2023-01-23T08:52:10.231Z,14.50
2023-01-23T08:57:18.298Z,16.67
2023-01-23T09:02:25.024Z,10.05
2023-01-23T09:07:31.818Z,11.68
2023-01-23T09:12:39.685Z,11.27
2023-01-23T09:17:46.176Z,12.15
2023-01-23T09:22:53.111Z,11.13
2023-01-23T09:28:00.971Z,10.07
2023-01-23T09:33:07.400Z,10.57
2023-01-23T09:38:13.609Z,10.55
2023-01-23T09:43:30.766Z,12.05
2023-01-23T09:48:46.512Z,12.38
2023-01-23T09:53:54.286Z,11.05
2023-01-23T09:59:16.251Z,11.23
2023-01-23T10:04:23.905Z,10.45
2023-01-23T10:10:00.621Z,9.20
2023-01-23T10:15:29.628Z,7.75
2023-01-23T10:21:04.431Z,9.25
2023-01-23T10:26:20.741Z,8.55
2023-01-23T10:31:39.226Z,9.48
2023-01-23T10:37:04.233Z,10.68
2023-01-23T10:42:14.630Z,10.90
2023-01-23T10:47:38.808Z,11.68
2023-01-23T10:52:48.388Z,10.07
2023-01-23T10:57:57.797Z,11.13
2023-01-23T11:03:34.840Z,10.02
2023-01-23T11:08:51.880Z,9.88
2023-01-23T11:14:23.800Z,9.90
2023-01-23T11:19:34.689Z,10.65
2023-01-23T11:24:41.874Z,11.77
2023-01-23T11:30:24.451Z,18.30
2023-01-23T11:36:01.966Z,12.27
2023-01-23T11:41:12.737Z,11.10
2023-01-23T11:46:39.626Z,14.18
2023-01-23T11:51:58.695Z,11.98
2023-01-23T11:57:11.285Z,11.02
2023-01-23T12:03:01.373Z,11.13
2023-01-23T12:08:26.332Z,11.07
2023-01-23T12:13:58.559Z,11.68
2023-01-23T12:19:20.641Z,11.30
2023-01-23T12:24:52.147Z,10.00
2023-01-23T12:30:22.508Z,11.68
2023-01-23T12:35:38.621Z,10.68
2023-01-23T12:40:52.376Z,11.50
2023-01-23T12:46:06.184Z,12.50
2023-01-23T12:51:20.356Z,11.77
2023-01-23T12:56:33.066Z,11.15
2023-01-23T13:02:01.014Z,12.55
2023-01-23T13:07:28.275Z,14.20
2023-01-23T13:12:36.996Z,14.15
2023-01-23T13:17:49.353Z,15.80
2023-01-23T13:22:55.576Z,14.23
2023-01-23T13:28:44.696Z,13.73
2023-01-23T13:33:55.329Z,11.98
2023-01-23T13:39:28.663Z,13.50
2023-01-23T13:44:41.812Z,12.18
2023-01-23T14:23:58.728Z,12.43
2023-01-23T14:29:20.410Z,12.98
2023-01-23T14:34:29.323Z,12.27
2023-01-23T14:44:47.606Z,13.70
2023-01-23T14:49:57.343Z,13.57
2023-01-23T14:55:08.135Z,16.25
2023-01-23T15:00:19.586Z,17.48
2023-01-23T15:05:29.517Z,15.48
2023-01-23T15:10:48.192Z,16.17
2023-01-23T15:15:58.849Z,16.42
2023-01-23T15:21:08.671Z,14.50
2023-01-23T15:26:28.012Z,16.13
2023-01-23T15:31:37.124Z,16.05
2023-01-23T15:36:52.642Z,14.98
2023-01-23T15:42:02.631Z,14.27
2023-01-23T15:47:09.267Z,17.92
2023-01-23T15:52:24.499Z,23.15
2023-01-23T15:57:31.496Z,17.60
2023-01-23T16:02:47.231Z,16.13
2023-01-23T16:08:04.766Z,17.45
2023-01-23T16:13:15.746Z,16.17
2023-01-23T16:18:24.169Z,15.43
2023-01-23T16:23:46.097Z,15.45
2023-01-23T16:28:55.515Z,17.27
2023-01-23T16:34:06.204Z,18.20
2023-01-23T16:39:20.561Z,17.80
2023-01-23T16:44:29.037Z,19.27
2023-01-23T16:49:50.987Z,20.10
2023-01-23T16:55:01.403Z,17.38
2023-01-23T17:00:33.514Z,17.90
2023-01-23T17:05:41.464Z,18.60
2023-01-23T17:10:53.464Z,18.25
2023-01-23T17:16:00.996Z,18.45
2023-01-23T17:21:08.853Z,18.53
2023-01-23T17:26:21.245Z,19.08
2023-01-23T17:31:33.531Z,18.27
2023-01-23T17:36:42.503Z,17.77
2023-01-23T17:47:04.088Z,18.15
2023-01-23T17:52:14.859Z,19.13
2023-01-23T17:57:25.450Z,20.90
2023-01-23T18:02:33.804Z,21.50
2023-01-23T18:07:53.836Z,24.38
2023-01-23T18:13:21.261Z,21.60
2023-01-23T18:18:34.273Z,18.90
2023-01-23T18:23:45.634Z,19.13
2023-01-23T18:29:26.952Z,17.73
2023-01-23T18:34:46.135Z,17.88
2023-01-23T18:40:17.377Z,21.70
2023-01-23T18:45:32.752Z,18.73
2023-01-23T18:50:54.047Z,20.13
2023-01-23T19:01:34.337Z,18.50
2023-01-23T19:06:45.486Z,20.70
2023-01-23T19:12:14.056Z,21.35
2023-01-23T19:17:50.507Z,19.15
2023-01-23T19:23:27.937Z,21.02
2023-01-23T19:28:38.973Z,19.67
2023-01-23T19:33:50.004Z,19.65
2023-01-23T19:39:02.904Z,21.08
2023-01-23T19:44:16.251Z,19.88
2023-01-23T19:49:29.006Z,19.17
2023-01-23T19:54:40.255Z,18.42
2023-01-23T19:59:50.243Z,18.65
2023-01-23T20:05:03.159Z,19.13
2023-01-23T20:10:22.682Z,19.50
2023-01-23T20:15:31.070Z,18.10
2023-01-23T20:20:42.086Z,16.90
2023-01-23T20:26:01.113Z,17.30
2023-01-23T20:36:23.023Z,18.35
2023-01-23T20:41:35.220Z,18.00
2023-01-23T20:46:44.727Z,16.02
2023-01-23T20:51:55.039Z,16.45
2023-01-23T20:57:07.809Z,16.15
2023-01-23T21:02:25.928Z,17.50
2023-01-23T21:07:37.354Z,17.88
2023-01-23T21:12:46.287Z,19.27
2023-01-23T21:17:53.806Z,20.30
2023-01-23T21:23:03.157Z,18.47
2023-01-23T21:33:19.401Z,18.80
2023-01-23T21:38:30.063Z,19.75
2023-01-23T21:43:39.159Z,19.75
2023-01-23T21:48:45.900Z,19.52
2023-01-23T21:53:54.354Z,19.80
2023-01-23T21:59:00.740Z,22.90
2023-01-23T22:04:11.071Z,24.05
2023-01-23T22:09:20.964Z,20.67
2023-01-23T22:14:27.576Z,21.42
2023-01-23T22:19:33.914Z,21.08
2023-01-23T22:24:41.738Z,21.55
2023-01-23T22:29:48.247Z,21.23
2023-01-23T22:34:54.858Z,22.27
2023-01-23T22:40:02.665Z,22.52
2023-01-23T22:45:11.066Z,20.70
2023-01-23T22:50:18.460Z,20.42
2023-01-23T22:55:26.262Z,19.17
2023-01-23T23:00:32.986Z,20.58
2023-01-23T23:05:39.709Z,19.98
2023-01-23T23:10:49.814Z,20.42
2023-01-23T23:15:56.686Z,19.23
2023-01-23T23:21:03.968Z,20.00
2023-01-23T23:26:14.437Z,20.25
2023-01-23T23:31:21.006Z,20.65
2023-01-23T23:36:27.701Z,22.67
2023-01-23T23:41:35.671Z,20.48
2023-01-23T23:46:42.038Z,20.80
2023-01-23T23:51:48.388Z,19.33
2023-01-23T23:56:56.102Z,20.75
